sensor_id;sensor_type;location;lat;lon;timestamp;temperature;humidity
28189;DHT22;15471;51.166;4.470;2023-01-20T00:01:11;1.30;99.90
28189;DHT22;15471;51.166;4.470;2023-01-20T00:03:40;1.30;99.90
28189;DHT22;15471;51.166;4.470;2023-01-20T00:06:08;1.30;99.90
28189;DHT22;15471;51.166;4.470;2023-01-20T00:08:34;1.30;99.90
28189;DHT22;15471;51.166;4.470;2023-01-20T00:11:03;1.30;99.90
28189;DHT22;15471;51.166;4.470;2023-01-20T00:13:30;1.30;99.90
28189;DHT22;15471;51.166;4.470;2023-01-20T00:15:55;1.40;99.90
28189;DHT22;15471;51.166;4.470;2023-01-20T00:18:21;1.50;99.90
28189;DHT22;15471;51.166;4.470;2023-01-20T00:20:47;1.50;99.90
28189;DHT22;15471;51.166;4.470;2023-01-20T00:23:13;1.50;99.90
28189;DHT22;15471;51.166;4.470;2023-01-20T00:25:38;1.40;99.90
28189;DHT22;15471;51.166;4.470;2023-01-20T00:28:04;1.40;99.90
28189;DHT22;15471;51.166;4.470;2023-01-20T00:30:30;1.40;99.90
28189;DHT22;15471;51.166;4.470;2023-01-20T00:32:56;1.40;99.90
28189;DHT22;15471;51.166;4.470;2023-01-20T00:35:22;1.50;99.90
28189;DHT22;15471;51.166;4.470;2023-01-20T00:37:48;1.40;99.90
28189;DHT22;15471;51.166;4.470;2023-01-20T00:40:17;1.40;99.90
28189;DHT22;15471;51.166;4.470;2023-01-20T00:42:43;1.40;99.90
28189;DHT22;15471;51.166;4.470;2023-01-20T03:34:22;1.10;99.90
28189;DHT22;15471;51.166;4.470;2023-01-20T03:36:50;1.10;99.90
28189;DHT22;15471;51.166;4.470;2023-01-20T03:39:17;1.10;99.90
28189;DHT22;15471;51.166;4.470;2023-01-20T03:42:05;1.10;99.90
28189;DHT22;15471;51.166;4.470;2023-01-20T03:47:09;1.20;99.90
28189;DHT22;15471;51.166;4.470;2023-01-20T03:50:07;1.10;99.90
28189;DHT22;15471;51.166;4.470;2023-01-20T03:52:43;1.20;99.90
28189;DHT22;15471;51.166;4.470;2023-01-20T03:55:35;1.20;99.90
28189;DHT22;15471;51.166;4.470;2023-01-20T03:58:13;1.20;99.90
28189;DHT22;15471;51.166;4.470;2023-01-20T04:00:43;1.20;99.90
28189;DHT22;15471;51.166;4.470;2023-01-20T04:03:31;1.20;99.90
28189;DHT22;15471;51.166;4.470;2023-01-20T04:05:59;1.20;99.90
28189;DHT22;15471;51.166;4.470;2023-01-20T04:08:32;1.20;99.90
28189;DHT22;15471;51.166;4.470;2023-01-20T04:11:00;1.10;99.90
28189;DHT22;15471;51.166;4.470;2023-01-20T04:13:28;1.10;99.90
28189;DHT22;15471;51.166;4.470;2023-01-20T04:15:55;1.10;99.90
28189;DHT22;15471;51.166;4.470;2023-01-20T04:18:22;1.10;99.90
28189;DHT22;15471;51.166;4.470;2023-01-20T04:20:52;1.20;99.90
28189;DHT22;15471;51.166;4.470;2023-01-20T04:23:28;1.10;99.90
28189;DHT22;15471;51.166;4.470;2023-01-20T04:25:55;1.10;99.90
28189;DHT22;15471;51.166;4.470;2023-01-20T04:28:21;1.10;99.90
28189;DHT22;15471;51.166;4.470;2023-01-20T04:30:47;1.10;99.90
28189;DHT22;15471;51.166;4.470;2023-01-20T04:33:13;1.20;99.90
28189;DHT22;15471;51.166;4.470;2023-01-20T04:35:39;1.20;99.90
28189;DHT22;15471;51.166;4.470;2023-01-20T04:38:05;1.30;99.90
28189;DHT22;15471;51.166;4.470;2023-01-20T04:40:31;1.30;99.90
28189;DHT22;15471;51.166;4.470;2023-01-20T04:42:57;1.30;99.90
28189;DHT22;15471;51.166;4.470;2023-01-20T04:45:22;1.20;99.90
28189;DHT22;15471;51.166;4.470;2023-01-20T04:47:48;1.20;99.90
28189;DHT22;15471;51.166;4.470;2023-01-20T04:50:14;1.30;99.90
28189;DHT22;15471;51.166;4.470;2023-01-20T04:52:41;1.30;99.90
28189;DHT22;15471;51.166;4.470;2023-01-20T04:55:07;1.40;99.90
28189;DHT22;15471;51.166;4.470;2023-01-20T04:57:33;1.30;99.90
28189;DHT22;15471;51.166;4.470;2023-01-20T04:59:59;1.30;99.90
28189;DHT22;15471;51.166;4.470;2023-01-20T05:02:25;1.30;99.90
28189;DHT22;15471;51.166;4.470;2023-01-20T05:04:51;1.30;99.90
28189;DHT22;15471;51.166;4.470;2023-01-20T05:07:17;1.40;99.90
28189;DHT22;15471;51.166;4.470;2023-01-20T05:09:43;1.40;99.90
28189;DHT22;15471;51.166;4.470;2023-01-20T05:12:08;1.50;99.90
28189;DHT22;15471;51.166;4.470;2023-01-20T05:14:34;1.50;99.90
28189;DHT22;15471;51.166;4.470;2023-01-20T05:17:00;1.60;99.90
28189;DHT22;15471;51.166;4.470;2023-01-20T05:19:26;1.50;99.90
28189;DHT22;15471;51.166;4.470;2023-01-20T05:21:51;1.50;99.90
28189;DHT22;15471;51.166;4.470;2023-01-20T05:24:17;1.60;99.90
28189;DHT22;15471;51.166;4.470;2023-01-20T05:26:43;1.60;99.90
28189;DHT22;15471;51.166;4.470;2023-01-20T05:29:09;1.60;99.90
28189;DHT22;15471;51.166;4.470;2023-01-20T05:31:34;1.60;99.90
28189;DHT22;15471;51.166;4.470;2023-01-20T05:34:02;1.50;99.90
28189;DHT22;15471;51.166;4.470;2023-01-20T05:36:28;1.50;99.90
28189;DHT22;15471;51.166;4.470;2023-01-20T05:38:54;1.50;99.90
28189;DHT22;15471;51.166;4.470;2023-01-20T05:41:20;1.50;99.90
28189;DHT22;15471;51.166;4.470;2023-01-20T05:43:46;1.50;99.90
28189;DHT22;15471;51.166;4.470;2023-01-20T05:46:12;1.60;99.90
28189;DHT22;15471;51.166;4.470;2023-01-20T05:48:40;1.60;99.90
28189;DHT22;15471;51.166;4.470;2023-01-20T05:51:05;1.60;99.90
28189;DHT22;15471;51.166;4.470;2023-01-20T05:53:32;1.60;99.90
28189;DHT22;15471;51.166;4.470;2023-01-20T05:56:03;1.70;99.90
28189;DHT22;15471;51.166;4.470;2023-01-20T05:58:30;1.70;99.90
28189;DHT22;15471;51.166;4.470;2023-01-20T06:01:06;1.60;99.90
28189;DHT22;15471;51.166;4.470;2023-01-20T06:03:33;1.60;99.90
28189;DHT22;15471;51.166;4.470;2023-01-20T06:06:03;1.60;99.90
28189;DHT22;15471;51.166;4.470;2023-01-20T06:08:30;1.60;99.90
28189;DHT22;15471;51.166;4.470;2023-01-20T06:10:56;1.60;99.90
28189;DHT22;15471;51.166;4.470;2023-01-20T06:13:22;1.50;99.90
28189;DHT22;15471;51.166;4.470;2023-01-20T06:15:52;1.50;99.90
28189;DHT22;15471;51.166;4.470;2023-01-20T06:18:18;1.60;99.90
28189;DHT22;15471;51.166;4.470;2023-01-20T06:20:44;1.70;99.90
28189;DHT22;15471;51.166;4.470;2023-01-20T06:23:10;1.70;99.90
28189;DHT22;15471;51.166;4.470;2023-01-20T06:25:36;1.80;99.90
28189;DHT22;15471;51.166;4.470;2023-01-20T06:28:02;1.80;99.90
28189;DHT22;15471;51.166;4.470;2023-01-20T06:30:28;1.80;99.90
28189;DHT22;15471;51.166;4.470;2023-01-20T06:32:54;1.70;99.90
28189;DHT22;15471;51.166;4.470;2023-01-20T06:35:20;1.70;99.90
28189;DHT22;15471;51.166;4.470;2023-01-20T06:37:46;1.70;99.90
28189;DHT22;15471;51.166;4.470;2023-01-20T06:40:12;1.70;99.90
28189;DHT22;15471;51.166;4.470;2023-01-20T06:42:39;1.60;99.90
28189;DHT22;15471;51.166;4.470;2023-01-20T06:45:05;1.60;99.90
28189;DHT22;15471;51.166;4.470;2023-01-20T06:47:31;1.60;99.90
28189;DHT22;15471;51.166;4.470;2023-01-20T06:49:57;1.70;99.90
28189;DHT22;15471;51.166;4.470;2023-01-20T06:52:23;1.70;99.90
28189;DHT22;15471;51.166;4.470;2023-01-20T06:54:48;1.70;99.90
28189;DHT22;15471;51.166;4.470;2023-01-20T06:57:14;1.70;99.90
28189;DHT22;15471;51.166;4.470;2023-01-20T06:59:40;1.70;99.90
28189;DHT22;15471;51.166;4.470;2023-01-20T07:02:07;1.80;99.90
28189;DHT22;15471;51.166;4.470;2023-01-20T07:04:33;1.70;99.90
28189;DHT22;15471;51.166;4.470;2023-01-20T07:06:59;1.70;99.90
28189;DHT22;15471;51.166;4.470;2023-01-20T07:09:25;1.80;99.90
28189;DHT22;15471;51.166;4.470;2023-01-20T07:11:51;1.80;99.90
28189;DHT22;15471;51.166;4.470;2023-01-20T07:14:17;1.80;99.90
28189;DHT22;15471;51.166;4.470;2023-01-20T07:16:42;1.80;99.90
28189;DHT22;15471;51.166;4.470;2023-01-20T07:19:08;1.60;99.90
28189;DHT22;15471;51.166;4.470;2023-01-20T07:21:34;1.60;99.90
28189;DHT22;15471;51.166;4.470;2023-01-20T07:24:01;1.60;99.90
28189;DHT22;15471;51.166;4.470;2023-01-20T07:26:27;1.60;99.90
28189;DHT22;15471;51.166;4.470;2023-01-20T07:41:11;1.50;99.90
28189;DHT22;15471;51.166;4.470;2023-01-20T07:44:54;1.50;99.90
28189;DHT22;15471;51.166;4.470;2023-01-20T10:12:34;3.00;99.90
28189;DHT22;15471;51.166;4.470;2023-01-20T10:15:08;3.10;99.90
28189;DHT22;15471;51.166;4.470;2023-01-20T10:17:43;3.10;99.90
28189;DHT22;15471;51.166;4.470;2023-01-20T10:20:41;3.30;99.90
28189;DHT22;15471;51.166;4.470;2023-01-20T10:23:17;3.40;99.90
28189;DHT22;15471;51.166;4.470;2023-01-20T10:25:55;3.30;99.90
28189;DHT22;15471;51.166;4.470;2023-01-20T10:28:26;3.30;99.90
28189;DHT22;15471;51.166;4.470;2023-01-20T10:30:55;3.40;99.90
28189;DHT22;15471;51.166;4.470;2023-01-20T10:33:37;3.40;99.90
28189;DHT22;15471;51.166;4.470;2023-01-20T10:36:09;3.40;99.90
28189;DHT22;15471;51.166;4.470;2023-01-20T10:41:20;3.50;99.90
28189;DHT22;15471;51.166;4.470;2023-01-20T10:43:49;3.40;99.90
28189;DHT22;15471;51.166;4.470;2023-01-20T10:46:41;3.30;99.90
28189;DHT22;15471;51.166;4.470;2023-01-20T10:55:05;2.80;99.90
28189;DHT22;15471;51.166;4.470;2023-01-20T10:57:37;2.70;99.90
28189;DHT22;15471;51.166;4.470;2023-01-20T11:00:24;2.50;99.90
28189;DHT22;15471;51.166;4.470;2023-01-20T11:02:51;2.40;99.90
28189;DHT22;15471;51.166;4.470;2023-01-20T11:05:21;2.20;99.90
28189;DHT22;15471;51.166;4.470;2023-01-20T11:07:49;2.00;99.90
28189;DHT22;15471;51.166;4.470;2023-01-20T11:10:22;1.70;99.90
28189;DHT22;15471;51.166;4.470;2023-01-20T11:13:00;1.60;99.90
28189;DHT22;15471;51.166;4.470;2023-01-20T11:15:32;1.40;99.90
28189;DHT22;15471;51.166;4.470;2023-01-20T11:20:51;1.40;99.90
28189;DHT22;15471;51.166;4.470;2023-01-20T11:23:38;1.50;99.90
28189;DHT22;15471;51.166;4.470;2023-01-20T11:34:31;2.20;99.90
28189;DHT22;15471;51.166;4.470;2023-01-20T11:37:19;2.30;99.90
28189;DHT22;15471;51.166;4.470;2023-01-20T11:42:16;2.40;99.90
28189;DHT22;15471;51.166;4.470;2023-01-20T11:44:54;2.30;99.90
28189;DHT22;15471;51.166;4.470;2023-01-20T11:47:28;2.30;99.90
28189;DHT22;15471;51.166;4.470;2023-01-20T11:52:38;2.20;99.90
28189;DHT22;15471;51.166;4.470;2023-01-20T11:55:19;2.20;99.90
28189;DHT22;15471;51.166;4.470;2023-01-20T11:57:57;2.20;99.90
28189;DHT22;15471;51.166;4.470;2023-01-20T12:03:02;2.30;99.90
28189;DHT22;15471;51.166;4.470;2023-01-20T12:05:59;2.30;99.90
28189;DHT22;15471;51.166;4.470;2023-01-20T12:11:04;2.10;99.90
28189;DHT22;15471;51.166;4.470;2023-01-20T12:13:38;2.20;99.90
28189;DHT22;15471;51.166;4.470;2023-01-20T12:16:26;2.20;99.90
28189;DHT22;15471;51.166;4.470;2023-01-20T12:18:58;2.40;99.90
28189;DHT22;15471;51.166;4.470;2023-01-20T12:21:30;2.50;99.90
28189;DHT22;15471;51.166;4.470;2023-01-20T12:26:45;2.60;99.90
28189;DHT22;15471;51.166;4.470;2023-01-20T12:29:35;2.70;99.90
28189;DHT22;15471;51.166;4.470;2023-01-20T12:32:02;2.80;99.90
28189;DHT22;15471;51.166;4.470;2023-01-20T12:34:30;2.90;99.90
28189;DHT22;15471;51.166;4.470;2023-01-20T12:45:45;3.20;99.90
28189;DHT22;15471;51.166;4.470;2023-01-20T12:48:49;3.30;99.90
28189;DHT22;15471;51.166;4.470;2023-01-20T13:16:48;3.70;99.90
28189;DHT22;15471;51.166;4.470;2023-01-20T13:19:23;3.80;99.90
28189;DHT22;15471;51.166;4.470;2023-01-20T13:21:53;3.80;99.90
28189;DHT22;15471;51.166;4.470;2023-01-20T13:24:20;3.70;99.90
28189;DHT22;15471;51.166;4.470;2023-01-20T13:26:57;3.80;99.90
28189;DHT22;15471;51.166;4.470;2023-01-20T13:32:34;4.00;99.90
28189;DHT22;15471;51.166;4.470;2023-01-20T13:35:36;3.90;99.90
28189;DHT22;15471;51.166;4.470;2023-01-20T13:48:30;3.60;99.90
28189;DHT22;15471;51.166;4.470;2023-01-20T13:53:44;3.60;99.90
28189;DHT22;15471;51.166;4.470;2023-01-20T13:56:25;3.60;99.90
28189;DHT22;15471;51.166;4.470;2023-01-20T13:58:51;3.70;99.90
28189;DHT22;15471;51.166;4.470;2023-01-20T14:01:18;3.70;99.90
28189;DHT22;15471;51.166;4.470;2023-01-20T14:03:43;3.50;99.90
28189;DHT22;15471;51.166;4.470;2023-01-20T14:06:25;3.30;99.90
28189;DHT22;15471;51.166;4.470;2023-01-20T14:08:53;3.30;99.90
28189;DHT22;15471;51.166;4.470;2023-01-20T14:11:21;3.40;99.90
28189;DHT22;15471;51.166;4.470;2023-01-20T14:13:55;3.70;99.90
28189;DHT22;15471;51.166;4.470;2023-01-20T14:18:54;4.20;99.90
28189;DHT22;15471;51.166;4.470;2023-01-20T14:21:23;4.40;99.90
28189;DHT22;15471;51.166;4.470;2023-01-20T14:23:50;4.50;99.90
28189;DHT22;15471;51.166;4.470;2023-01-20T14:26:20;4.40;99.90
28189;DHT22;15471;51.166;4.470;2023-01-20T14:28:58;4.30;99.90
28189;DHT22;15471;51.166;4.470;2023-01-20T14:31:31;4.30;99.90
28189;DHT22;15471;51.166;4.470;2023-01-20T14:34:29;4.30;99.90
28189;DHT22;15471;51.166;4.470;2023-01-20T14:36:59;4.60;99.90
28189;DHT22;15471;51.166;4.470;2023-01-20T14:39:27;4.80;99.90
28189;DHT22;15471;51.166;4.470;2023-01-20T14:41:58;4.80;99.90
28189;DHT22;15471;51.166;4.470;2023-01-20T14:44:29;4.70;99.90
28189;DHT22;15471;51.166;4.470;2023-01-20T14:47:00;4.30;99.90
28189;DHT22;15471;51.166;4.470;2023-01-20T14:49:32;3.80;99.90
28189;DHT22;15471;51.166;4.470;2023-01-20T14:52:00;3.60;99.90
28189;DHT22;15471;51.166;4.470;2023-01-20T14:54:43;3.50;99.90
28189;DHT22;15471;51.166;4.470;2023-01-20T15:00:18;3.50;99.90
28189;DHT22;15471;51.166;4.470;2023-01-20T15:05:26;3.70;99.90
28189;DHT22;15471;51.166;4.470;2023-01-20T15:08:04;3.70;99.90
28189;DHT22;15471;51.166;4.470;2023-01-20T15:10:31;3.70;99.90
28189;DHT22;15471;51.166;4.470;2023-01-20T15:12:56;3.50;99.90
28189;DHT22;15471;51.166;4.470;2023-01-20T15:15:29;3.40;99.90
28189;DHT22;15471;51.166;4.470;2023-01-20T15:20:29;3.70;99.90
28189;DHT22;15471;51.166;4.470;2023-01-20T15:22:58;3.70;99.90
28189;DHT22;15471;51.166;4.470;2023-01-20T15:25:25;3.40;99.90
28189;DHT22;15471;51.166;4.470;2023-01-20T15:27:53;3.20;99.90
28189;DHT22;15471;51.166;4.470;2023-01-20T15:30:21;3.20;99.90
28189;DHT22;15471;51.166;4.470;2023-01-20T15:32:54;3.10;99.90
28189;DHT22;15471;51.166;4.470;2023-01-20T15:35:26;2.90;99.90
28189;DHT22;15471;51.166;4.470;2023-01-20T15:37:52;2.90;99.90
28189;DHT22;15471;51.166;4.470;2023-01-20T15:40:23;2.70;99.90
28189;DHT22;15471;51.166;4.470;2023-01-20T15:42:50;2.70;99.90
28189;DHT22;15471;51.166;4.470;2023-01-20T15:45:18;2.60;99.90
28189;DHT22;15471;51.166;4.470;2023-01-20T15:47:45;2.40;99.90
28189;DHT22;15471;51.166;4.470;2023-01-20T15:50:22;2.10;99.90
28189;DHT22;15471;51.166;4.470;2023-01-20T15:53:12;2.00;99.90
28189;DHT22;15471;51.166;4.470;2023-01-20T15:55:49;1.90;99.90
28189;DHT22;15471;51.166;4.470;2023-01-20T15:58:30;1.90;99.90
28189;DHT22;15471;51.166;4.470;2023-01-20T16:01:21;1.90;99.90
28189;DHT22;15471;51.166;4.470;2023-01-20T16:03:54;2.00;99.90
28189;DHT22;15471;51.166;4.470;2023-01-20T16:06:23;2.00;99.90
28189;DHT22;15471;51.166;4.470;2023-01-20T16:08:51;2.00;99.90
28189;DHT22;15471;51.166;4.470;2023-01-20T16:11:18;2.00;99.90
28189;DHT22;15471;51.166;4.470;2023-01-20T16:13:45;2.00;99.90
28189;DHT22;15471;51.166;4.470;2023-01-20T16:16:22;2.00;99.90
28189;DHT22;15471;51.166;4.470;2023-01-20T16:18:48;2.00;99.90
28189;DHT22;15471;51.166;4.470;2023-01-20T16:21:18;2.10;99.90
28189;DHT22;15471;51.166;4.470;2023-01-20T16:23:46;2.20;99.90
28189;DHT22;15471;51.166;4.470;2023-01-20T16:26:38;2.20;99.90
28189;DHT22;15471;51.166;4.470;2023-01-20T16:29:08;2.30;99.90
28189;DHT22;15471;51.166;4.470;2023-01-20T16:31:34;2.30;99.90
28189;DHT22;15471;51.166;4.470;2023-01-20T16:34:04;2.30;99.90
28189;DHT22;15471;51.166;4.470;2023-01-20T16:36:32;2.40;99.90
28189;DHT22;15471;51.166;4.470;2023-01-20T16:38:58;2.40;99.90
28189;DHT22;15471;51.166;4.470;2023-01-20T16:41:25;2.40;99.90
28189;DHT22;15471;51.166;4.470;2023-01-20T16:43:55;2.50;99.90
28189;DHT22;15471;51.166;4.470;2023-01-20T16:46:31;2.60;99.90
28189;DHT22;15471;51.166;4.470;2023-01-20T16:49:03;2.60;99.90
28189;DHT22;15471;51.166;4.470;2023-01-20T16:51:34;2.60;99.90
28189;DHT22;15471;51.166;4.470;2023-01-20T16:54:00;2.60;99.90
28189;DHT22;15471;51.166;4.470;2023-01-20T16:56:28;2.60;99.90
28189;DHT22;15471;51.166;4.470;2023-01-20T16:58:56;2.60;99.90
28189;DHT22;15471;51.166;4.470;2023-01-20T17:01:30;2.60;99.90
28189;DHT22;15471;51.166;4.470;2023-01-20T17:04:01;2.60;99.90
28189;DHT22;15471;51.166;4.470;2023-01-20T17:06:30;2.60;99.90
28189;DHT22;15471;51.166;4.470;2023-01-20T17:08:58;2.60;99.90
28189;DHT22;15471;51.166;4.470;2023-01-20T17:11:27;2.60;99.90
28189;DHT22;15471;51.166;4.470;2023-01-20T17:13:53;2.60;99.90
28189;DHT22;15471;51.166;4.470;2023-01-20T17:16:21;2.60;99.90
28189;DHT22;15471;51.166;4.470;2023-01-20T17:18:51;2.60;99.90
28189;DHT22;15471;51.166;4.470;2023-01-20T17:21:18;2.70;99.90
28189;DHT22;15471;51.166;4.470;2023-01-20T17:23:56;2.70;99.90
28189;DHT22;15471;51.166;4.470;2023-01-20T17:26:23;2.80;99.90
28189;DHT22;15471;51.166;4.470;2023-01-20T17:28:53;2.80;99.90
28189;DHT22;15471;51.166;4.470;2023-01-20T17:31:20;2.80;99.90
28189;DHT22;15471;51.166;4.470;2023-01-20T17:33:47;2.80;99.90
28189;DHT22;15471;51.166;4.470;2023-01-20T17:36:14;2.70;99.90
28189;DHT22;15471;51.166;4.470;2023-01-20T17:38:41;2.40;99.90
28189;DHT22;15471;51.166;4.470;2023-01-20T17:41:09;2.30;99.90
28189;DHT22;15471;51.166;4.470;2023-01-20T17:43:37;2.10;99.90
28189;DHT22;15471;51.166;4.470;2023-01-20T17:46:16;2.00;99.90
28189;DHT22;15471;51.166;4.470;2023-01-20T17:48:43;1.90;99.90
28189;DHT22;15471;51.166;4.470;2023-01-20T17:51:21;2.00;99.90
28189;DHT22;15471;51.166;4.470;2023-01-20T17:54:02;2.00;99.90
28189;DHT22;15471;51.166;4.470;2023-01-20T17:56:28;2.00;99.90
28189;DHT22;15471;51.166;4.470;2023-01-20T17:58:54;2.00;99.90
28189;DHT22;15471;51.166;4.470;2023-01-20T18:01:25;1.80;99.90
28189;DHT22;15471;51.166;4.470;2023-01-20T18:03:52;1.80;99.90
28189;DHT22;15471;51.166;4.470;2023-01-20T18:06:20;1.80;99.90
28189;DHT22;15471;51.166;4.470;2023-01-20T18:08:57;1.90;99.90
28189;DHT22;15471;51.166;4.470;2023-01-20T18:11:25;1.90;99.90
28189;DHT22;15471;51.166;4.470;2023-01-20T18:13:53;2.00;99.90
28189;DHT22;15471;51.166;4.470;2023-01-20T18:16:25;1.90;99.90
28189;DHT22;15471;51.166;4.470;2023-01-20T18:18:55;1.90;99.90
28189;DHT22;15471;51.166;4.470;2023-01-20T18:21:30;1.90;99.90
28189;DHT22;15471;51.166;4.470;2023-01-20T18:23:57;1.80;99.90
28189;DHT22;15471;51.166;4.470;2023-01-20T18:26:33;1.80;99.90
28189;DHT22;15471;51.166;4.470;2023-01-20T18:29:02;1.80;99.90
28189;DHT22;15471;51.166;4.470;2023-01-20T18:31:31;1.80;99.90
28189;DHT22;15471;51.166;4.470;2023-01-20T18:34:02;1.80;99.90
28189;DHT22;15471;51.166;4.470;2023-01-20T18:36:41;1.80;99.90
28189;DHT22;15471;51.166;4.470;2023-01-20T18:39:18;1.80;99.90
28189;DHT22;15471;51.166;4.470;2023-01-20T18:41:44;1.80;99.90
28189;DHT22;15471;51.166;4.470;2023-01-20T18:44:10;1.80;99.90
28189;DHT22;15471;51.166;4.470;2023-01-20T18:46:36;1.70;99.90
28189;DHT22;15471;51.166;4.470;2023-01-20T18:49:03;1.70;99.90
28189;DHT22;15471;51.166;4.470;2023-01-20T18:51:30;1.70;99.90
28189;DHT22;15471;51.166;4.470;2023-01-20T18:53:57;1.60;99.90
28189;DHT22;15471;51.166;4.470;2023-01-20T18:56:24;1.60;99.90
28189;DHT22;15471;51.166;4.470;2023-01-20T19:01:47;1.70;99.90
28189;DHT22;15471;51.166;4.470;2023-01-20T19:04:14;1.70;99.90
28189;DHT22;15471;51.166;4.470;2023-01-20T19:06:44;1.60;99.90
28189;DHT22;15471;51.166;4.470;2023-01-20T19:09:17;1.60;99.90
28189;DHT22;15471;51.166;4.470;2023-01-20T19:11:55;1.50;99.90
28189;DHT22;15471;51.166;4.470;2023-01-20T19:14:21;1.60;99.90
28189;DHT22;15471;51.166;4.470;2023-01-20T19:16:49;1.60;99.90
28189;DHT22;15471;51.166;4.470;2023-01-20T19:19:15;1.60;99.90
28189;DHT22;15471;51.166;4.470;2023-01-20T19:21:44;1.70;99.90
28189;DHT22;15471;51.166;4.470;2023-01-20T19:24:18;1.70;99.90
28189;DHT22;15471;51.166;4.470;2023-01-20T19:26:44;1.80;99.90
28189;DHT22;15471;51.166;4.470;2023-01-20T19:29:12;1.70;99.90
28189;DHT22;15471;51.166;4.470;2023-01-20T19:31:40;1.70;99.90
28189;DHT22;15471;51.166;4.470;2023-01-20T19:34:08;1.60;99.90
28189;DHT22;15471;51.166;4.470;2023-01-20T19:36:39;1.60;99.90
28189;DHT22;15471;51.166;4.470;2023-01-20T19:39:23;1.60;99.90
28189;DHT22;15471;51.166;4.470;2023-01-20T19:41:48;1.60;99.90
28189;DHT22;15471;51.166;4.470;2023-01-20T19:44:14;1.60;99.90
28189;DHT22;15471;51.166;4.470;2023-01-20T19:46:40;1.60;99.90
28189;DHT22;15471;51.166;4.470;2023-01-20T19:49:10;1.70;99.90
28189;DHT22;15471;51.166;4.470;2023-01-20T19:51:36;1.70;99.90
28189;DHT22;15471;51.166;4.470;2023-01-20T19:54:03;1.70;99.90
28189;DHT22;15471;51.166;4.470;2023-01-20T19:56:31;1.70;99.90
28189;DHT22;15471;51.166;4.470;2023-01-20T19:58:58;1.70;99.90
28189;DHT22;15471;51.166;4.470;2023-01-20T20:01:34;1.60;99.90
28189;DHT22;15471;51.166;4.470;2023-01-20T20:04:08;1.60;99.90
28189;DHT22;15471;51.166;4.470;2023-01-20T20:06:40;1.60;99.90
28189;DHT22;15471;51.166;4.470;2023-01-20T20:09:16;1.50;99.90
28189;DHT22;15471;51.166;4.470;2023-01-20T20:11:42;1.30;99.90
28189;DHT22;15471;51.166;4.470;2023-01-20T20:14:12;1.30;99.90
28189;DHT22;15471;51.166;4.470;2023-01-20T20:16:38;1.20;99.90
28189;DHT22;15471;51.166;4.470;2023-01-20T20:19:10;1.30;99.90
28189;DHT22;15471;51.166;4.470;2023-01-20T20:21:36;1.40;99.90
28189;DHT22;15471;51.166;4.470;2023-01-20T20:24:11;1.40;99.90
28189;DHT22;15471;51.166;4.470;2023-01-20T20:26:37;1.40;99.90
28189;DHT22;15471;51.166;4.470;2023-01-20T20:29:07;1.40;99.90
28189;DHT22;15471;51.166;4.470;2023-01-20T20:31:34;1.40;99.90
28189;DHT22;15471;51.166;4.470;2023-01-20T20:34:02;1.40;99.90
28189;DHT22;15471;51.166;4.470;2023-01-20T20:36:29;1.50;99.90
28189;DHT22;15471;51.166;4.470;2023-01-20T20:38:58;1.50;99.90
28189;DHT22;15471;51.166;4.470;2023-01-20T20:41:25;1.50;99.90
28189;DHT22;15471;51.166;4.470;2023-01-20T20:43:54;1.60;99.90
28189;DHT22;15471;51.166;4.470;2023-01-20T20:46:20;1.70;99.90
28189;DHT22;15471;51.166;4.470;2023-01-20T20:48:46;1.70;99.90
28189;DHT22;15471;51.166;4.470;2023-01-20T20:51:14;1.80;99.90
28189;DHT22;15471;51.166;4.470;2023-01-20T20:53:41;1.60;99.90
28189;DHT22;15471;51.166;4.470;2023-01-20T20:56:11;1.60;99.90
28189;DHT22;15471;51.166;4.470;2023-01-20T20:58:42;1.70;99.90
28189;DHT22;15471;51.166;4.470;2023-01-20T21:01:16;1.70;99.90
28189;DHT22;15471;51.166;4.470;2023-01-20T21:03:52;1.70;99.90
28189;DHT22;15471;51.166;4.470;2023-01-20T21:06:21;1.60;99.90
28189;DHT22;15471;51.166;4.470;2023-01-20T21:08:47;1.70;99.90
28189;DHT22;15471;51.166;4.470;2023-01-20T21:11:15;1.60;99.90
28189;DHT22;15471;51.166;4.470;2023-01-20T21:13:41;1.50;99.90
28189;DHT22;15471;51.166;4.470;2023-01-20T21:16:12;1.40;99.90
28189;DHT22;15471;51.166;4.470;2023-01-20T21:18:39;1.30;99.90
28189;DHT22;15471;51.166;4.470;2023-01-20T21:21:09;1.30;99.90
28189;DHT22;15471;51.166;4.470;2023-01-20T21:23:36;1.10;99.90
28189;DHT22;15471;51.166;4.470;2023-01-20T21:26:03;1.10;99.90
28189;DHT22;15471;51.166;4.470;2023-01-20T21:28:31;1.00;99.90
28189;DHT22;15471;51.166;4.470;2023-01-20T21:31:06;1.00;99.90
28189;DHT22;15471;51.166;4.470;2023-01-20T21:33:41;1.00;99.90
28189;DHT22;15471;51.166;4.470;2023-01-20T21:36:11;1.00;99.90
28189;DHT22;15471;51.166;4.470;2023-01-20T21:38:41;1.00;99.90
28189;DHT22;15471;51.166;4.470;2023-01-20T21:41:12;0.90;99.90
28189;DHT22;15471;51.166;4.470;2023-01-20T21:43:43;0.90;99.90
28189;DHT22;15471;51.166;4.470;2023-01-20T21:46:29;0.90;99.90
28189;DHT22;15471;51.166;4.470;2023-01-20T21:48:55;0.90;99.90
28189;DHT22;15471;51.166;4.470;2023-01-20T21:51:40;0.80;99.90
28189;DHT22;15471;51.166;4.470;2023-01-20T21:54:31;0.80;99.90
28189;DHT22;15471;51.166;4.470;2023-01-20T21:57:00;0.90;99.90
28189;DHT22;15471;51.166;4.470;2023-01-20T21:59:26;0.80;99.90
28189;DHT22;15471;51.166;4.470;2023-01-20T22:01:55;0.80;99.90
28189;DHT22;15471;51.166;4.470;2023-01-20T22:04:21;0.80;99.90
28189;DHT22;15471;51.166;4.470;2023-01-20T22:06:49;0.70;99.90
28189;DHT22;15471;51.166;4.470;2023-01-20T22:09:15;0.70;99.90
28189;DHT22;15471;51.166;4.470;2023-01-20T22:11:41;0.70;99.90
28189;DHT22;15471;51.166;4.470;2023-01-20T22:14:08;0.70;99.90
28189;DHT22;15471;51.166;4.470;2023-01-20T22:16:37;0.60;99.90
28189;DHT22;15471;51.166;4.470;2023-01-20T22:19:03;0.60;99.90
28189;DHT22;15471;51.166;4.470;2023-01-20T22:21:30;0.60;99.90
28189;DHT22;15471;51.166;4.470;2023-01-20T22:23:56;0.70;99.90
28189;DHT22;15471;51.166;4.470;2023-01-20T22:26:22;0.60;99.90
28189;DHT22;15471;51.166;4.470;2023-01-20T22:28:47;0.60;99.90
28189;DHT22;15471;51.166;4.470;2023-01-20T22:31:16;0.50;99.90
28189;DHT22;15471;51.166;4.470;2023-01-20T22:33:50;0.60;99.90
28189;DHT22;15471;51.166;4.470;2023-01-20T22:36:17;0.60;99.90
28189;DHT22;15471;51.166;4.470;2023-01-20T22:38:43;0.50;99.90
28189;DHT22;15471;51.166;4.470;2023-01-20T22:41:11;0.60;99.90
28189;DHT22;15471;51.166;4.470;2023-01-20T22:43:37;0.50;99.90
28189;DHT22;15471;51.166;4.470;2023-01-20T22:46:10;0.50;99.90
28189;DHT22;15471;51.166;4.470;2023-01-20T22:48:37;0.40;99.90
28189;DHT22;15471;51.166;4.470;2023-01-20T22:51:15;0.40;99.90
28189;DHT22;15471;51.166;4.470;2023-01-20T22:53:42;0.40;99.90
28189;DHT22;15471;51.166;4.470;2023-01-20T22:56:17;0.30;99.90
28189;DHT22;15471;51.166;4.470;2023-01-20T22:58:44;0.40;99.90
28189;DHT22;15471;51.166;4.470;2023-01-20T23:01:15;0.30;99.90
28189;DHT22;15471;51.166;4.470;2023-01-20T23:03:41;0.30;99.90
28189;DHT22;15471;51.166;4.470;2023-01-20T23:06:08;0.30;99.90
28189;DHT22;15471;51.166;4.470;2023-01-20T23:08:35;0.40;99.90
28189;DHT22;15471;51.166;4.470;2023-01-20T23:11:05;0.30;99.90